createdAt,value
2023-02-14T00:00:57.054Z,3.98
2023-02-14T00:01:56.902Z,3.98
2023-02-14T00:02:57.265Z,4.01
2023-02-14T00:03:57.254Z,3.89
2023-02-14T00:04:57.469Z,4.04
2023-02-14T00:05:57.556Z,3.98
2023-02-14T00:06:57.746Z,4.00
2023-02-14T00:07:57.930Z,3.96
2023-02-14T00:08:58.626Z,4.00
2023-02-14T00:09:58.424Z,3.96
2023-02-14T00:10:59.870Z,3.88
2023-02-14T00:11:59.309Z,3.85
2023-02-14T00:12:58.852Z,3.86
2023-02-14T00:13:59.764Z,3.88
2023-02-14T00:14:59.199Z,3.96
2023-02-14T00:16:00.335Z,3.89
2023-02-14T00:16:59.596Z,3.82
2023-02-14T00:18:00.772Z,3.83
2023-02-14T00:18:59.925Z,3.92
2023-02-14T00:20:00.808Z,3.96
2023-02-14T00:21:01.273Z,3.89
2023-02-14T00:22:00.565Z,3.83
2023-02-14T00:23:00.764Z,3.82
2023-02-14T00:24:00.858Z,3.71
2023-02-14T00:25:01.018Z,3.75
2023-02-14T00:26:01.195Z,3.71
2023-02-14T00:27:01.401Z,3.57
2023-02-14T00:28:01.605Z,3.53
2023-02-14T00:29:01.789Z,3.50
2023-02-14T00:30:02.074Z,3.42
2023-02-14T00:31:02.632Z,3.44
2023-02-14T00:32:02.907Z,3.49
2023-02-14T00:33:02.605Z,3.39
2023-02-14T00:34:02.792Z,3.53
2023-02-14T00:35:02.967Z,3.53
2023-02-14T00:36:03.133Z,3.43
2023-02-14T00:37:03.328Z,3.58
2023-02-14T00:38:04.277Z,3.62
2023-02-14T00:39:03.711Z,3.62
2023-02-14T00:40:03.892Z,3.67
2023-02-14T00:41:05.633Z,3.61
2023-02-14T00:42:04.249Z,3.68
2023-02-14T00:43:04.439Z,3.62
2023-02-14T00:44:04.627Z,3.68
2023-02-14T00:45:04.787Z,3.67
2023-02-14T00:46:04.986Z,3.65
2023-02-14T00:47:05.161Z,3.65
2023-02-14T00:48:06.270Z,3.70
2023-02-14T00:49:05.529Z,3.75
2023-02-14T00:50:06.311Z,3.80
2023-02-14T00:51:05.835Z,4.01
2023-02-14T00:52:06.081Z,4.03
2023-02-14T00:53:07.273Z,3.98
2023-02-14T00:54:06.411Z,4.03
2023-02-14T00:55:07.776Z,4.16
2023-02-14T00:56:06.769Z,4.10
2023-02-14T00:57:08.224Z,4.16
2023-02-14T00:58:07.812Z,4.34
2023-02-14T00:59:07.226Z,4.33
2023-02-14T01:00:07.374Z,4.36
2023-02-14T01:01:07.589Z,4.32
2023-02-14T01:02:07.846Z,4.28
2023-02-14T01:03:07.918Z,4.26
2023-02-14T01:04:08.056Z,4.22
2023-02-14T01:05:08.818Z,4.22
2023-02-14T01:06:08.381Z,4.10
2023-02-14T01:07:08.557Z,4.03
2023-02-14T01:08:08.714Z,4.10
2023-02-14T01:09:08.869Z,4.08
2023-02-14T01:10:09.774Z,4.07
2023-02-14T01:11:09.198Z,4.03
2023-02-14T01:12:09.383Z,4.24
2023-02-14T01:13:10.774Z,4.44
2023-02-14T01:14:10.278Z,4.62
2023-02-14T01:15:09.941Z,4.80
2023-02-14T01:16:10.156Z,4.79
2023-02-14T01:17:10.347Z,4.64
2023-02-14T01:18:10.545Z,4.92
2023-02-14T01:19:10.693Z,5.12
2023-02-14T01:20:10.869Z,5.14
2023-02-14T01:21:11.035Z,5.02
2023-02-14T01:22:11.198Z,5.09
2023-02-14T01:23:12.275Z,5.14
2023-02-14T01:24:12.163Z,5.07
2023-02-14T01:25:11.700Z,4.86
2023-02-14T01:26:12.777Z,4.79
2023-02-14T01:27:12.819Z,4.79
2023-02-14T01:28:12.778Z,4.72
2023-02-14T01:29:12.450Z,4.83
2023-02-14T01:30:12.697Z,4.98
2023-02-14T01:31:13.395Z,5.12
2023-02-14T01:32:13.703Z,5.17
2023-02-14T01:33:13.136Z,5.14
2023-02-14T01:34:13.354Z,5.16
2023-02-14T01:35:14.320Z,5.35
2023-02-14T01:36:14.278Z,5.38
2023-02-14T01:37:13.928Z,5.49
2023-02-14T01:38:14.081Z,5.55
2023-02-14T01:39:14.245Z,5.60
2023-02-14T01:40:15.433Z,5.91
2023-02-14T01:41:15.331Z,5.75
2023-02-14T01:42:16.282Z,5.59
2023-02-14T01:43:14.920Z,5.49
2023-02-14T01:44:15.782Z,5.53
2023-02-14T01:45:15.305Z,5.48
2023-02-14T01:46:15.492Z,5.46
2023-02-14T01:47:16.287Z,5.59
2023-02-14T01:48:17.286Z,5.53
2023-02-14T01:49:16.051Z,5.50
2023-02-14T01:50:16.252Z,5.52
2023-02-14T01:51:16.449Z,5.55
2023-02-14T01:52:16.656Z,5.74
2023-02-14T01:53:16.824Z,5.74
2023-02-14T01:54:17.010Z,5.77
2023-02-14T01:55:17.233Z,5.73
2023-02-14T01:56:17.440Z,5.60
2023-02-14T01:57:17.627Z,5.57
2023-02-14T01:58:17.819Z,5.43
2023-02-14T01:59:18.787Z,5.50
2023-02-14T02:00:18.181Z,5.53
2023-02-14T02:01:18.956Z,5.59
2023-02-14T02:02:18.491Z,5.59
2023-02-14T02:03:20.653Z,5.53
2023-02-14T02:04:18.885Z,5.52
2023-02-14T02:05:19.069Z,5.52
2023-02-14T02:06:19.232Z,5.41
2023-02-14T02:07:19.410Z,5.32
2023-02-14T02:08:20.299Z,5.43
2023-02-14T02:09:19.834Z,5.48
2023-02-14T02:10:20.031Z,5.45
2023-02-14T02:11:20.147Z,5.55
2023-02-14T02:12:21.290Z,5.52
2023-02-14T02:13:21.155Z,5.55
2023-02-14T02:14:20.812Z,5.49
2023-02-14T02:15:21.010Z,5.63
2023-02-14T02:16:22.333Z,5.71
2023-02-14T02:17:21.347Z,5.75
2023-02-14T02:18:21.540Z,5.73
2023-02-14T02:19:21.697Z,5.64
2023-02-14T02:20:21.888Z,5.52
2023-02-14T02:21:22.082Z,5.55
2023-02-14T02:22:22.265Z,5.46
2023-02-14T02:23:23.332Z,5.23
2023-02-14T02:24:22.630Z,5.27
2023-02-14T02:25:22.833Z,5.32
2023-02-14T02:26:22.981Z,5.28
2023-02-14T02:27:24.432Z,5.17
2023-02-14T02:28:23.297Z,5.16
2023-02-14T02:29:23.463Z,5.31
2023-02-14T02:30:24.459Z,5.34
2023-02-14T02:31:23.829Z,5.37
2023-02-14T02:32:24.742Z,5.28
2023-02-14T02:33:24.127Z,5.37
2023-02-14T02:34:24.309Z,5.32
2023-02-14T02:35:24.472Z,5.34
2023-02-14T02:36:24.645Z,5.53
2023-02-14T02:37:24.773Z,5.35
2023-02-14T02:38:25.803Z,5.30
2023-02-14T02:39:25.196Z,5.25
2023-02-14T02:40:25.341Z,5.17
2023-02-14T02:41:26.302Z,5.23
2023-02-14T02:42:25.697Z,5.22
2023-02-14T02:43:25.844Z,5.10
2023-02-14T02:44:26.057Z,5.14
2023-02-14T02:45:26.242Z,5.25
2023-02-14T02:46:26.425Z,5.22
2023-02-14T02:47:26.584Z,5.28
2023-02-14T02:48:26.723Z,5.02
2023-02-14T02:49:28.303Z,5.17
2023-02-14T02:50:27.050Z,5.17
2023-02-14T02:51:27.198Z,5.20
2023-02-14T02:52:29.802Z,5.07
2023-02-14T02:53:27.525Z,5.12
2023-02-14T02:54:27.672Z,5.16
2023-02-14T02:55:27.842Z,5.16
2023-02-14T02:56:28.812Z,5.22
2023-02-14T02:57:28.219Z,5.27
2023-02-14T02:58:28.373Z,5.40
2023-02-14T02:59:29.302Z,5.48
2023-02-14T03:00:28.716Z,5.49
2023-02-14T03:01:28.926Z,5.50
2023-02-14T03:02:29.795Z,5.73
2023-02-14T03:03:30.205Z,5.92
2023-02-14T03:04:30.358Z,6.13
2023-02-14T03:05:29.591Z,6.06
2023-02-14T03:06:29.768Z,6.13
2023-02-14T03:07:30.812Z,6.25
2023-02-14T03:08:30.094Z,6.26
2023-02-14T03:09:30.404Z,6.29
2023-02-14T03:10:31.435Z,6.01
2023-02-14T03:11:30.618Z,5.96
2023-02-14T03:12:31.315Z,6.07
2023-02-14T03:13:30.995Z,6.00
2023-02-14T03:14:31.808Z,6.10
2023-02-14T03:15:32.829Z,6.04
2023-02-14T03:16:31.478Z,6.09
2023-02-14T03:17:31.685Z,5.98
2023-02-14T03:18:31.845Z,5.91
2023-02-14T03:19:31.990Z,5.86
2023-02-14T03:20:32.169Z,5.89
2023-02-14T03:21:32.333Z,5.98
2023-02-14T03:22:32.539Z,6.10
2023-02-14T03:23:33.309Z,6.01
2023-02-14T03:24:32.960Z,6.01
2023-02-14T03:25:33.118Z,6.10
2023-02-14T03:26:33.817Z,6.14
2023-02-14T03:27:33.468Z,6.16
2023-02-14T03:28:33.633Z,6.10
2023-02-14T03:29:34.672Z,6.19
2023-02-14T03:30:33.918Z,6.21
2023-02-14T03:31:34.216Z,6.29
2023-02-14T03:32:34.197Z,6.38
2023-02-14T03:33:34.340Z,6.38
2023-02-14T03:34:34.489Z,6.35
2023-02-14T03:35:34.673Z,6.38
2023-02-14T03:36:34.865Z,6.41
2023-02-14T03:37:35.019Z,6.41
2023-02-14T03:38:35.178Z,6.51
2023-02-14T03:39:35.364Z,6.35
2023-02-14T03:40:35.544Z,6.41
2023-02-14T03:41:35.700Z,6.44
2023-02-14T03:42:35.853Z,6.43
2023-02-14T03:43:36.034Z,6.58
2023-02-14T03:44:36.810Z,6.53
2023-02-14T03:45:36.338Z,6.50
2023-02-14T03:46:36.566Z,6.58
2023-02-14T03:47:36.626Z,6.54
2023-02-14T03:48:36.780Z,6.63
2023-02-14T03:49:37.853Z,6.68
2023-02-14T03:50:37.092Z,6.56
2023-02-14T03:51:37.276Z,6.53
2023-02-14T03:52:37.464Z,6.68
2023-02-14T03:53:37.604Z,6.65
2023-02-14T03:54:37.782Z,6.72
2023-02-14T03:55:38.685Z,6.71
2023-02-14T03:56:39.175Z,6.72
2023-02-14T03:57:38.439Z,6.68
2023-02-14T03:58:38.589Z,6.77
2023-02-14T03:59:38.750Z,6.66
2023-02-14T04:00:39.821Z,6.73
2023-02-14T04:01:39.831Z,6.71
2023-02-14T04:02:39.813Z,6.71
2023-02-14T04:03:40.519Z,6.72
2023-02-14T04:04:39.578Z,6.76
2023-02-14T04:05:39.747Z,6.71
2023-02-14T04:06:40.855Z,6.77
2023-02-14T04:07:40.813Z,6.71
2023-02-14T04:08:40.333Z,6.76
2023-02-14T04:09:40.499Z,6.76
2023-02-14T04:10:41.325Z,6.79
2023-02-14T04:11:40.821Z,6.79
2023-02-14T04:12:41.854Z,6.77
2023-02-14T04:13:41.122Z,6.89
2023-02-14T04:14:41.286Z,6.69
2023-02-14T04:15:41.478Z,6.81
2023-02-14T04:16:41.658Z,6.80
2023-02-14T04:17:41.821Z,6.77
2023-02-14T04:18:41.987Z,6.76
2023-02-14T04:19:42.179Z,6.84
2023-02-14T04:20:44.320Z,6.79
2023-02-14T04:21:42.556Z,6.76
2023-02-14T04:22:42.728Z,6.86
2023-02-14T04:23:42.878Z,6.87
2023-02-14T04:24:43.040Z,6.83
2023-02-14T04:25:43.180Z,6.77
2023-02-14T04:26:44.316Z,6.81
2023-02-14T04:27:43.479Z,6.73
2023-02-14T04:28:43.635Z,6.80
2023-02-14T04:29:43.810Z,6.84
2023-02-14T04:30:43.982Z,6.90
2023-02-14T04:31:44.312Z,6.76
2023-02-14T04:32:44.822Z,6.81
2023-02-14T04:33:44.490Z,6.90
2023-02-14T04:34:44.654Z,6.84
2023-02-14T04:35:45.321Z,6.69
2023-02-14T04:36:44.966Z,6.83
2023-02-14T04:37:45.112Z,6.80
2023-02-14T04:38:45.286Z,6.68
2023-02-14T04:39:46.396Z,6.73
2023-02-14T04:40:45.684Z,6.63
2023-02-14T04:41:45.836Z,6.53
2023-02-14T04:42:46.033Z,6.43
2023-02-14T04:43:46.406Z,6.43
2023-02-14T04:44:47.392Z,6.47
2023-02-14T04:45:46.643Z,6.44
2023-02-14T04:46:46.839Z,6.29
2023-02-14T04:47:47.009Z,6.36
2023-02-14T04:48:47.180Z,6.26
2023-02-14T04:49:48.316Z,6.25
2023-02-14T04:50:47.464Z,6.13
2023-02-14T04:51:47.631Z,6.09
2023-02-14T04:52:47.794Z,6.01
2023-02-14T04:53:50.773Z,5.75
2023-02-14T04:54:49.825Z,5.68
2023-02-14T04:55:48.334Z,5.57
2023-02-14T04:56:48.508Z,5.55
2023-02-14T04:57:48.693Z,5.35
2023-02-14T04:58:48.903Z,5.22
2023-02-14T04:59:49.820Z,5.30
2023-02-14T05:00:49.258Z,5.32
2023-02-14T05:01:49.951Z,5.23
2023-02-14T05:02:49.630Z,5.32
2023-02-14T05:03:50.822Z,5.40
2023-02-14T05:04:49.991Z,5.48
2023-02-14T05:05:50.121Z,5.57
2023-02-14T05:06:50.825Z,5.55
2023-02-14T05:07:51.324Z,5.56
2023-02-14T05:08:51.336Z,5.63
2023-02-14T05:09:50.733Z,5.70
2023-02-14T05:10:51.864Z,5.70
2023-02-14T05:11:51.131Z,5.73
2023-02-14T05:12:52.320Z,5.85
2023-02-14T05:13:51.457Z,5.82
2023-02-14T05:14:51.643Z,5.89
2023-02-14T05:15:52.949Z,6.00
2023-02-14T05:16:52.016Z,6.03
2023-02-14T05:17:52.171Z,6.00
2023-02-14T05:18:53.824Z,5.82
2023-02-14T05:19:52.555Z,5.78
2023-02-14T05:20:53.366Z,5.77
2023-02-14T05:21:52.890Z,5.71
2023-02-14T05:22:53.063Z,5.59
2023-02-14T05:23:53.221Z,5.55
2023-02-14T05:24:53.397Z,5.38
2023-02-14T05:25:54.323Z,5.30
2023-02-14T05:26:53.720Z,5.22
2023-02-14T05:27:54.818Z,5.27
2023-02-14T05:28:54.847Z,5.25
2023-02-14T05:29:54.371Z,5.14
2023-02-14T05:30:54.454Z,4.96
2023-02-14T05:31:54.572Z,4.83
2023-02-14T05:32:54.799Z,4.77
2023-02-14T05:33:55.024Z,4.75
2023-02-14T05:34:55.229Z,4.65
2023-02-14T05:35:56.191Z,4.70
2023-02-14T05:36:56.367Z,4.44
2023-02-14T05:37:55.788Z,4.39
2023-02-14T05:38:56.044Z,4.34
2023-02-14T05:39:56.231Z,4.37
2023-02-14T05:40:56.416Z,4.26
2023-02-14T05:41:58.492Z,4.12
2023-02-14T05:42:56.812Z,4.10
2023-02-14T05:43:57.012Z,4.10
2023-02-14T05:44:57.196Z,3.90
2023-02-14T05:45:57.472Z,4.03
2023-02-14T05:46:58.369Z,3.96
2023-02-14T05:47:57.732Z,4.01
2023-02-14T05:48:57.907Z,3.83
2023-02-14T05:49:58.081Z,3.83
2023-02-14T05:50:58.500Z,3.75
2023-02-14T05:51:58.429Z,3.72
2023-02-14T05:52:58.624Z,3.67
2023-02-14T05:53:58.756Z,3.70
2023-02-14T05:55:00.509Z,3.44
2023-02-14T05:56:00.170Z,3.49
2023-02-14T05:56:59.293Z,3.36
2023-02-14T05:57:59.476Z,3.33
2023-02-14T05:58:59.648Z,3.31
2023-02-14T05:59:59.830Z,3.23
2023-02-14T06:01:00.406Z,3.15
2023-02-14T06:02:02.930Z,3.15
2023-02-14T06:03:00.362Z,3.23
2023-02-14T06:04:00.928Z,3.06
2023-02-14T06:05:01.395Z,3.05
2023-02-14T06:06:00.931Z,3.02
2023-02-14T06:07:02.837Z,3.10
2023-02-14T06:08:01.349Z,3.03
2023-02-14T06:09:01.578Z,2.91
2023-02-14T06:10:01.875Z,2.89
2023-02-14T06:11:02.175Z,2.77
2023-02-14T06:12:02.099Z,2.79
2023-02-14T06:13:02.266Z,2.71
2023-02-14T06:14:02.455Z,2.67
2023-02-14T06:15:02.629Z,2.74
2023-02-14T06:16:02.826Z,2.64
2023-02-14T06:17:03.876Z,2.64
2023-02-14T06:18:03.202Z,2.66
2023-02-14T06:19:04.339Z,2.67
2023-02-14T06:20:03.505Z,2.64
2023-02-14T06:21:03.674Z,2.63
2023-02-14T06:22:06.211Z,2.64
2023-02-14T06:23:04.080Z,2.64
2023-02-14T06:24:04.275Z,2.58
2023-02-14T06:25:05.340Z,2.52
2023-02-14T06:26:04.600Z,2.56
2023-02-14T06:27:05.343Z,2.48
2023-02-14T06:28:05.000Z,2.58
2023-02-14T06:29:06.349Z,2.52
2023-02-14T06:30:05.437Z,2.64
2023-02-14T06:31:06.446Z,2.61
2023-02-14T06:32:05.831Z,2.56
2023-02-14T06:33:05.883Z,2.58
2023-02-14T06:34:06.062Z,2.55
2023-02-14T06:35:06.852Z,2.61
2023-02-14T06:36:07.402Z,2.61
2023-02-14T06:37:06.531Z,2.48
2023-02-14T06:38:07.360Z,2.58
2023-02-14T06:39:06.901Z,2.63
2023-02-14T06:40:08.856Z,2.59
2023-02-14T06:41:07.274Z,2.70
2023-02-14T06:42:07.442Z,2.59
2023-02-14T06:43:07.616Z,2.55
2023-02-14T06:44:08.800Z,2.58
2023-02-14T06:45:07.977Z,2.58
2023-02-14T06:46:08.321Z,2.52
2023-02-14T06:47:09.311Z,2.55
2023-02-14T06:48:09.480Z,2.48
2023-02-14T06:49:09.393Z,2.49
2023-02-14T06:50:08.837Z,2.45
2023-02-14T06:51:09.887Z,2.55
2023-02-14T06:52:09.195Z,2.44
2023-02-14T06:53:09.417Z,2.52
2023-02-14T06:54:10.389Z,2.51
2023-02-14T06:55:10.370Z,2.45
2023-02-14T06:56:10.890Z,2.55
2023-02-14T06:57:11.022Z,2.63
2023-02-14T06:58:11.888Z,2.63
2023-02-14T06:59:11.392Z,2.58
2023-02-14T07:00:11.415Z,2.76
2023-02-14T07:01:11.435Z,2.82
2023-02-14T07:02:12.409Z,2.92
2023-02-14T07:03:11.057Z,3.00
2023-02-14T07:04:12.865Z,3.02
2023-02-14T07:05:11.417Z,3.07
2023-02-14T07:06:33.388Z,3.18
2023-02-14T07:07:11.746Z,3.05
2023-02-14T07:08:12.407Z,3.03
2023-02-14T07:09:13.720Z,3.00
2023-02-14T07:10:12.215Z,3.20
2023-02-14T07:11:13.352Z,3.36
2023-02-14T07:12:12.496Z,3.49
2023-02-14T07:13:12.708Z,3.50
2023-02-14T07:14:13.867Z,3.52
2023-02-14T07:15:13.899Z,3.62
2023-02-14T07:16:13.329Z,3.64
2023-02-14T07:17:13.515Z,3.82
2023-02-14T07:18:13.682Z,3.80
2023-02-14T07:19:13.845Z,4.06
2023-02-14T07:20:14.034Z,4.18
2023-02-14T07:21:14.194Z,4.33
2023-02-14T07:22:14.380Z,4.70
2023-02-14T07:23:15.353Z,4.98
2023-02-14T07:24:15.359Z,5.10
2023-02-14T07:25:14.897Z,5.09
2023-02-14T07:26:15.066Z,5.07
2023-02-14T07:27:15.898Z,4.96
2023-02-14T07:28:17.354Z,4.75
2023-02-14T07:29:15.589Z,4.58
2023-02-14T07:30:16.481Z,4.61
2023-02-14T07:31:17.130Z,4.47
2023-02-14T07:32:17.050Z,4.40
2023-02-14T07:33:16.318Z,4.29
2023-02-14T07:34:17.351Z,4.24
2023-02-14T07:35:16.622Z,4.15
2023-02-14T07:36:16.801Z,4.07
2023-02-14T07:37:16.986Z,4.08
2023-02-14T07:38:17.854Z,4.00
2023-02-14T07:39:17.382Z,4.04
2023-02-14T07:40:18.852Z,4.06
2023-02-14T07:41:18.396Z,4.16
2023-02-14T07:42:17.933Z,4.83
2023-02-14T07:43:20.140Z,5.78
2023-02-14T07:44:19.212Z,7.07
2023-02-14T07:45:22.372Z,7.93
2023-02-14T07:46:19.617Z,8.66
2023-02-14T07:47:18.795Z,9.38
2023-02-14T07:48:19.907Z,10.17
2023-02-14T07:49:19.180Z,10.47
2023-02-14T07:50:19.342Z,10.98
2023-02-14T07:51:19.542Z,11.31
2023-02-14T07:52:19.719Z,11.68
2023-02-14T07:53:19.884Z,11.62
2023-02-14T07:54:20.407Z,11.93
2023-02-14T07:55:21.238Z,12.08
2023-02-14T07:56:20.454Z,11.82
2023-02-14T07:57:20.534Z,11.68
2023-02-14T07:58:20.701Z,11.67
2023-02-14T07:59:21.399Z,11.49
2023-02-14T08:00:21.050Z,11.77
2023-02-14T08:01:21.313Z,12.05
2023-02-14T08:02:22.357Z,12.31
2023-02-14T08:03:22.406Z,12.51
2023-02-14T08:04:21.797Z,12.78
2023-02-14T08:05:22.111Z,13.15
2023-02-14T08:06:22.171Z,13.07
2023-02-14T08:07:22.344Z,13.38
2023-02-14T08:08:22.528Z,13.59
2023-02-14T08:09:22.730Z,13.36
2023-02-14T08:10:22.892Z,12.78
2023-02-14T08:11:24.361Z,11.75
2023-02-14T08:12:23.237Z,11.02
2023-02-14T08:13:23.899Z,10.01
2023-02-14T08:14:24.864Z,9.67
2023-02-14T08:15:23.707Z,9.42
2023-02-14T08:16:23.895Z,8.83
2023-02-14T08:17:23.995Z,8.47
2023-02-14T08:18:24.165Z,8.32
2023-02-14T08:19:24.312Z,8.25
2023-02-14T08:20:24.439Z,8.11
2023-02-14T08:21:24.588Z,7.97
2023-02-14T08:22:24.759Z,8.07
2023-02-14T08:23:26.359Z,8.55
2023-02-14T08:24:26.359Z,9.39
2023-02-14T08:25:25.206Z,10.10
2023-02-14T08:26:25.373Z,10.98
2023-02-14T08:27:25.537Z,11.80
2023-02-14T08:28:25.711Z,12.41
2023-02-14T08:29:25.884Z,13.07
2023-02-14T08:30:26.142Z,13.81
2023-02-14T08:31:35.045Z,14.21
2023-02-14T08:32:28.463Z,14.01
2023-02-14T08:33:27.362Z,13.99
2023-02-14T08:34:26.762Z,13.88
2023-02-14T08:35:26.941Z,14.09
2023-02-14T08:36:27.728Z,14.39
2023-02-14T08:37:27.272Z,14.44
2023-02-14T08:38:27.458Z,14.61
2023-02-14T08:39:27.545Z,14.61
2023-02-14T08:40:27.727Z,15.08
2023-02-14T08:41:27.923Z,15.17
2023-02-14T08:42:28.920Z,15.33
2023-02-14T08:43:29.237Z,14.98
2023-02-14T08:44:28.517Z,14.86
2023-02-14T08:45:28.708Z,14.31
2023-02-14T08:46:28.958Z,14.27
2023-02-14T08:47:29.426Z,14.25
2023-02-14T08:48:29.207Z,14.35
2023-02-14T08:49:29.386Z,14.64
2023-02-14T08:50:30.421Z,14.93
2023-02-14T08:51:29.681Z,14.93
2023-02-14T08:52:29.883Z,15.17
2023-02-14T08:53:30.065Z,14.80
2023-02-14T08:54:30.224Z,14.25
2023-02-14T08:55:31.256Z,13.69
2023-02-14T08:56:31.409Z,13.46
2023-02-14T08:57:30.668Z,13.81
2023-02-14T08:58:32.795Z,13.61
2023-02-14T08:59:32.910Z,13.27
2023-02-14T09:00:31.264Z,13.67
2023-02-14T09:01:31.432Z,14.32
2023-02-14T09:02:31.640Z,14.64
2023-02-14T09:03:31.766Z,14.99
2023-02-14T09:04:31.959Z,14.84
2023-02-14T09:05:32.830Z,14.44
2023-02-14T09:06:32.309Z,14.69
2023-02-14T09:07:32.507Z,14.91
2023-02-14T09:08:32.751Z,15.17
2023-02-14T09:09:32.948Z,15.30
2023-02-14T09:10:33.181Z,15.57
2023-02-14T09:11:33.454Z,14.91
2023-02-14T09:12:34.386Z,14.90
2023-02-14T09:13:34.395Z,15.03
2023-02-14T09:14:34.429Z,14.88
2023-02-14T09:15:34.944Z,14.98
2023-02-14T09:16:34.288Z,15.08
2023-02-14T09:17:34.487Z,15.09
2023-02-14T09:18:35.427Z,15.27
2023-02-14T09:19:35.032Z,15.56
2023-02-14T09:20:35.033Z,15.21
2023-02-14T09:21:35.141Z,15.46
2023-02-14T09:22:35.931Z,15.26
2023-02-14T09:23:35.544Z,15.06
2023-02-14T09:24:35.942Z,14.83
2023-02-14T09:25:35.874Z,14.53
2023-02-14T09:26:37.928Z,14.39
2023-02-14T09:27:36.332Z,14.20
2023-02-14T09:28:36.546Z,14.35
2023-02-14T09:29:36.749Z,14.38
2023-02-14T09:30:36.938Z,14.71
2023-02-14T09:31:37.254Z,15.08
2023-02-14T09:32:37.447Z,15.41
2023-02-14T09:33:38.394Z,15.43
2023-02-14T09:34:37.687Z,15.23
2023-02-14T09:35:38.431Z,15.17
2023-02-14T09:36:38.904Z,15.28
2023-02-14T09:37:38.193Z,15.13
2023-02-14T09:38:38.404Z,15.11
2023-02-14T09:39:38.580Z,15.27
2023-02-14T09:40:39.832Z,15.56
2023-02-14T09:41:39.935Z,15.63
2023-02-14T09:42:39.218Z,15.28
2023-02-14T09:43:39.476Z,14.95
2023-02-14T09:44:40.894Z,15.28
2023-02-14T09:45:40.497Z,15.38
2023-02-14T09:46:39.920Z,15.54
2023-02-14T09:47:40.135Z,15.54
2023-02-14T09:48:40.917Z,15.12
2023-02-14T09:49:42.561Z,14.67
2023-02-14T09:50:40.775Z,14.67
2023-02-14T09:51:41.895Z,14.44
2023-02-14T09:52:41.052Z,14.49
2023-02-14T09:53:41.229Z,14.60
2023-02-14T09:54:41.938Z,14.74
2023-02-14T09:55:41.748Z,14.32
2023-02-14T09:56:51.264Z,14.27
2023-02-14T09:57:44.049Z,14.28
2023-02-14T09:58:42.167Z,14.06
2023-02-14T09:59:43.388Z,14.04
2023-02-14T10:00:43.542Z,14.21
2023-02-14T10:01:42.685Z,13.91
2023-02-14T10:02:42.853Z,13.94
2023-02-14T10:03:43.007Z,14.24
2023-02-14T10:04:43.146Z,14.27
2023-02-14T10:05:43.337Z,14.14
2023-02-14T10:06:44.401Z,14.19
2023-02-14T10:07:43.698Z,14.17
2023-02-14T10:08:43.860Z,14.34
2023-02-14T10:09:44.047Z,14.52
2023-02-14T10:10:44.235Z,14.35
2023-02-14T10:11:44.416Z,14.90
2023-02-14T10:12:44.627Z,14.83
2023-02-14T10:13:44.794Z,15.11
2023-02-14T10:14:44.967Z,15.39
2023-02-14T10:15:45.152Z,15.19
2023-02-14T10:16:45.423Z,15.11
2023-02-14T10:17:45.513Z,15.24
2023-02-14T10:18:45.674Z,15.33
2023-02-14T10:19:46.444Z,15.28
2023-02-14T10:20:45.993Z,15.39
2023-02-14T10:21:48.006Z,15.48
2023-02-14T10:22:47.953Z,15.72
2023-02-14T10:23:46.971Z,15.66
2023-02-14T10:24:46.612Z,15.56
2023-02-14T10:25:46.798Z,15.13
2023-02-14T10:26:47.022Z,15.43
2023-02-14T10:27:47.198Z,15.49
2023-02-14T10:28:47.372Z,15.42
2023-02-14T10:29:47.700Z,15.15
2023-02-14T10:30:47.855Z,15.31
2023-02-14T10:31:48.990Z,15.48
2023-02-14T10:32:48.159Z,15.42
2023-02-14T10:33:48.913Z,15.24
2023-02-14T10:34:50.366Z,15.23
2023-02-14T10:35:48.605Z,14.98
2023-02-14T10:36:48.804Z,14.90
2023-02-14T10:37:48.980Z,14.94
2023-02-14T10:38:49.915Z,14.84
2023-02-14T10:39:49.327Z,14.84
2023-02-14T10:40:49.511Z,14.62
2023-02-14T10:41:49.700Z,14.98
2023-02-14T10:42:49.906Z,15.11
2023-02-14T10:43:50.085Z,15.15
2023-02-14T10:44:50.274Z,14.86
2023-02-14T10:45:50.556Z,14.69
2023-02-14T10:46:51.428Z,14.65
2023-02-14T10:47:51.926Z,14.93
2023-02-14T10:48:51.965Z,14.91
2023-02-14T10:49:51.924Z,15.06
2023-02-14T10:50:51.248Z,15.15
2023-02-14T10:51:51.478Z,15.46
2023-02-14T10:52:52.461Z,15.57
2023-02-14T10:53:51.719Z,15.27
2023-02-14T10:54:51.929Z,14.95
2023-02-14T10:55:52.965Z,15.01
2023-02-14T10:56:52.246Z,14.99
2023-02-14T10:57:52.562Z,15.17
2023-02-14T10:58:55.433Z,14.94
2023-02-14T10:59:52.810Z,15.09
2023-02-14T11:00:53.967Z,15.05
2023-02-14T11:01:53.188Z,15.05
2023-02-14T11:02:53.932Z,15.08
2023-02-14T11:03:53.658Z,15.06
2023-02-14T11:04:53.772Z,14.99
2023-02-14T11:05:53.996Z,15.06
2023-02-14T11:06:54.217Z,15.11
2023-02-14T11:07:54.337Z,15.11
2023-02-14T11:08:57.258Z,14.90
2023-02-14T11:09:56.474Z,15.08
2023-02-14T11:10:55.456Z,15.30
2023-02-14T11:11:55.001Z,15.60
2023-02-14T11:12:55.488Z,15.66
2023-02-14T11:13:55.429Z,15.60
2023-02-14T11:14:55.591Z,15.70
2023-02-14T11:15:55.760Z,15.94
2023-02-14T11:16:55.974Z,15.94
2023-02-14T11:17:56.048Z,15.88
2023-02-14T11:18:56.253Z,15.60
2023-02-14T11:19:56.427Z,15.45
2023-02-14T11:20:56.607Z,15.46
2023-02-14T11:21:56.778Z,15.26
2023-02-14T11:22:56.975Z,15.20
2023-02-14T11:23:57.171Z,15.23
2023-02-14T11:24:57.334Z,15.06
2023-02-14T11:25:57.808Z,15.15
2023-02-14T11:26:58.479Z,15.23
2023-02-14T11:27:57.861Z,15.28
2023-02-14T11:28:58.063Z,15.30
2023-02-14T11:29:58.499Z,15.31
2023-02-14T11:30:59.281Z,15.43
2023-02-14T11:32:00.005Z,15.43
2023-02-14T11:32:58.769Z,15.51
2023-02-14T11:33:58.939Z,15.36
2023-02-14T11:34:59.946Z,15.35
2023-02-14T11:36:00.306Z,15.42
2023-02-14T11:36:59.580Z,15.56
2023-02-14T11:38:01.444Z,15.48
2023-02-14T11:39:00.498Z,15.56
2023-02-14T11:40:00.814Z,15.84
2023-02-14T11:41:00.648Z,16.06
2023-02-14T11:42:00.526Z,16.16
2023-02-14T11:43:13.370Z,16.22
2023-02-14T11:44:03.446Z,16.09
2023-02-14T11:45:01.505Z,16.12
2023-02-14T11:46:01.331Z,15.97
2023-02-14T11:47:02.962Z,16.07
2023-02-14T11:48:01.592Z,16.16
2023-02-14T11:49:01.785Z,16.11
2023-02-14T11:50:01.965Z,16.00
2023-02-14T11:51:02.218Z,16.06
2023-02-14T11:52:02.292Z,16.01
2023-02-14T11:53:02.446Z,16.09
2023-02-14T11:54:02.632Z,16.09
2023-02-14T11:55:02.866Z,16.15
2023-02-14T11:56:03.116Z,16.15
2023-02-14T11:57:03.327Z,16.15
2023-02-14T11:58:03.525Z,16.00
2023-02-14T11:59:03.858Z,15.99
2023-02-14T12:00:05.504Z,15.97
2023-02-14T12:01:04.990Z,15.78
2023-02-14T12:02:04.286Z,15.59
2023-02-14T12:03:04.515Z,15.63
2023-02-14T12:04:04.698Z,15.60
2023-02-14T12:05:04.883Z,15.46
2023-02-14T12:06:05.053Z,15.57
2023-02-14T12:07:05.960Z,15.28
2023-02-14T12:08:05.355Z,15.27
2023-02-14T12:09:06.458Z,15.43
2023-02-14T12:10:05.706Z,15.49
2023-02-14T12:11:05.844Z,15.35
2023-02-14T12:12:07.000Z,15.31
2023-02-14T12:13:06.961Z,15.39
2023-02-14T12:14:06.327Z,15.54
2023-02-14T12:15:07.960Z,15.52
2023-02-14T12:16:09.482Z,15.59
2023-02-14T12:17:06.824Z,15.57
2023-02-14T12:18:06.984Z,15.54
2023-02-14T12:19:07.998Z,15.66
2023-02-14T12:20:07.379Z,15.63
2023-02-14T12:21:07.519Z,15.52
2023-02-14T12:22:08.453Z,15.66
2023-02-14T12:23:09.013Z,15.61
2023-02-14T12:24:08.029Z,15.64
2023-02-14T12:25:09.462Z,15.78
2023-02-14T12:26:08.358Z,15.94
2023-02-14T12:27:09.465Z,15.99
2023-02-14T12:28:08.732Z,16.09
2023-02-14T12:29:08.903Z,16.18
2023-02-14T12:30:09.137Z,16.12
2023-02-14T12:31:10.036Z,16.22
2023-02-14T12:32:09.439Z,16.18
2023-02-14T12:33:10.462Z,16.00
2023-02-14T12:34:09.726Z,15.96
2023-02-14T12:35:09.874Z,16.01
2023-02-14T12:36:10.092Z,16.04
2023-02-14T12:37:11.961Z,16.20
2023-02-14T12:38:10.490Z,16.20
2023-02-14T12:39:10.668Z,15.93
2023-02-14T12:40:10.831Z,15.96
2023-02-14T12:41:11.511Z,15.94
2023-02-14T12:42:12.463Z,15.86
2023-02-14T12:43:11.973Z,15.89
2023-02-14T12:44:11.501Z,15.92
2023-02-14T12:45:12.471Z,16.01
2023-02-14T12:46:11.944Z,16.01
2023-02-14T12:47:12.055Z,16.09
2023-02-14T12:48:15.198Z,16.00
2023-02-14T12:49:12.367Z,15.94
2023-02-14T12:50:12.528Z,15.70
2023-02-14T12:51:12.703Z,15.66
2023-02-14T12:52:12.909Z,15.70
2023-02-14T12:53:13.076Z,15.79
2023-02-14T12:54:13.965Z,15.70
2023-02-14T12:55:13.348Z,15.74
2023-02-14T12:56:13.504Z,15.68
2023-02-14T12:57:14.029Z,15.76
2023-02-14T12:58:13.799Z,15.84
2023-02-14T12:59:13.985Z,15.86
2023-02-14T13:00:14.176Z,15.81
2023-02-14T13:01:16.373Z,15.81
2023-02-14T13:02:17.059Z,15.85
2023-02-14T13:03:15.556Z,15.88
2023-02-14T13:04:15.511Z,15.78
2023-02-14T13:05:16.014Z,15.94
2023-02-14T13:06:16.467Z,15.92
2023-02-14T13:07:15.515Z,15.94
2023-02-14T13:08:16.519Z,16.03
2023-02-14T13:09:16.472Z,16.04
2023-02-14T13:10:16.064Z,15.93
2023-02-14T13:11:17.016Z,16.07